Terminal Aerodrome Forecast
Issued by NWS

Home | Current Version | Previous Version | Text Only | Print | Product List | Glossary On
Versions: 1 2 3 4 5 6 7 8 9 10 11 12 13 14 15 16 17 18 19 20 21 22 23 24 25 26 27
000
FTUS41 KOKX 051135
TAFTEB
TAF
KTEB 051135Z 0512/0612 26006KT P6SM FEW120 SCT250
     FM051400 33007KT P6SM BKN100
     FM051700 VRB05KT P6SM SCT050 SCT150 BKN250
     FM052100 18007KT P6SM BKN050
     FM060000 VRB04KT P6SM SCT050 BKN100
     FM060800 03007KT 6SM -SHRA BKN040=

USA.gov is the U.S. government's official web portal to all federal, state and local government web resources and services.